sensor_id;sensor_type;location;lat;lon;timestamp;pressure;altitude;pressure_sealevel;temperature;humidity
19510;BME280;9896;42.486;26.506;2023-04-10T00:00:04;99973.38;;;6.00;100.00
19510;BME280;9896;42.486;26.506;2023-04-10T00:02:31;99981.16;;;6.10;100.00
19510;BME280;9896;42.486;26.506;2023-04-10T00:04:58;99969.88;;;5.69;100.00
19510;BME280;9896;42.486;26.506;2023-04-10T00:07:23;99969.50;;;5.72;100.00
19510;BME280;9896;42.486;26.506;2023-04-10T00:09:49;99949.66;;;5.51;100.00
19510;BME280;9896;42.486;26.506;2023-04-10T00:12:15;99958.06;;;5.63;100.00
19510;BME280;9896;42.486;26.506;2023-04-10T00:14:40;99953.63;;;5.55;100.00
19510;BME280;9896;42.486;26.506;2023-04-10T00:17:06;99946.09;;;5.28;100.00
19510;BME280;9896;42.486;26.506;2023-04-10T00:19:32;99945.00;;;4.98;100.00
19510;BME280;9896;42.486;26.506;2023-04-10T00:21:58;99946.69;;;4.91;100.00
19510;BME280;9896;42.486;26.506;2023-04-10T00:24:23;99951.50;;;4.88;100.00
19510;BME280;9896;42.486;26.506;2023-04-10T00:26:49;99944.88;;;4.84;100.00
19510;BME280;9896;42.486;26.506;2023-04-10T00:29:14;99944.91;;;4.67;100.00
19510;BME280;9896;42.486;26.506;2023-04-10T00:31:40;99938.72;;;4.83;100.00
19510;BME280;9896;42.486;26.506;2023-04-10T00:34:05;99936.75;;;4.77;100.00
19510;BME280;9896;42.486;26.506;2023-04-10T00:36:31;99927.16;;;4.68;100.00
19510;BME280;9896;42.486;26.506;2023-04-10T00:38:57;99924.28;;;4.86;100.00
19510;BME280;9896;42.486;26.506;2023-04-10T00:41:24;99921.94;;;4.99;100.00
19510;BME280;9896;42.486;26.506;2023-04-10T00:43:53;99921.25;;;5.05;100.00
19510;BME280;9896;42.486;26.506;2023-04-10T00:46:19;99914.06;;;5.13;100.00
19510;BME280;9896;42.486;26.506;2023-04-10T00:48:44;99908.91;;;5.20;100.00
19510;BME280;9896;42.486;26.506;2023-04-10T00:51:10;99909.03;;;5.27;100.00
19510;BME280;9896;42.486;26.506;2023-04-10T00:53:36;99890.16;;;5.13;100.00
19510;BME280;9896;42.486;26.506;2023-04-10T00:56:01;99901.34;;;5.40;100.00
19510;BME280;9896;42.486;26.506;2023-04-10T00:58:27;99898.88;;;5.30;100.00
19510;BME280;9896;42.486;26.506;2023-04-10T01:00:54;99903.66;;;5.43;100.00
19510;BME280;9896;42.486;26.506;2023-04-10T01:03:20;99903.66;;;5.04;100.00
19510;BME280;9896;42.486;26.506;2023-04-10T01:08:52;99906.72;;;5.32;100.00
19510;BME280;9896;42.486;26.506;2023-04-10T01:17:00;99912.03;;;4.77;100.00
19510;BME280;9896;42.486;26.506;2023-04-10T01:22:02;99914.47;;;4.86;100.00
19510;BME280;9896;42.486;26.506;2023-04-10T01:29:44;99913.84;;;4.84;100.00
19510;BME280;9896;42.486;26.506;2023-04-10T01:32:14;99914.00;;;4.75;100.00
19510;BME280;9896;42.486;26.506;2023-04-10T01:34:43;99917.84;;;4.72;100.00
19510;BME280;9896;42.486;26.506;2023-04-10T01:39:46;99920.50;;;4.80;100.00
19510;BME280;9896;42.486;26.506;2023-04-10T01:42:15;99911.13;;;5.00;100.00
19510;BME280;9896;42.486;26.506;2023-04-10T01:44:45;99916.78;;;4.89;100.00
19510;BME280;9896;42.486;26.506;2023-04-10T01:47:13;99911.81;;;4.86;100.00
19510;BME280;9896;42.486;26.506;2023-04-10T01:49:39;99910.03;;;4.79;100.00
19510;BME280;9896;42.486;26.506;2023-04-10T01:52:10;99905.06;;;4.67;100.00
19510;BME280;9896;42.486;26.506;2023-04-10T01:54:35;99903.75;;;4.63;100.00
19510;BME280;9896;42.486;26.506;2023-04-10T01:57:03;99904.88;;;4.69;100.00
19510;BME280;9896;42.486;26.506;2023-04-10T01:59:28;99893.63;;;4.51;100.00
19510;BME280;9896;42.486;26.506;2023-04-10T02:01:59;99897.44;;;4.40;100.00
19510;BME280;9896;42.486;26.506;2023-04-10T02:04:25;99893.16;;;4.47;100.00
19510;BME280;9896;42.486;26.506;2023-04-10T02:07:03;99895.81;;;4.39;100.00
19510;BME280;9896;42.486;26.506;2023-04-10T02:09:53;99888.84;;;4.14;100.00
19510;BME280;9896;42.486;26.506;2023-04-10T02:12:38;99889.00;;;4.12;100.00
19510;BME280;9896;42.486;26.506;2023-04-10T02:15:04;99896.47;;;4.33;100.00
19510;BME280;9896;42.486;26.506;2023-04-10T02:17:33;99892.66;;;4.44;100.00
19510;BME280;9896;42.486;26.506;2023-04-10T02:20:00;99887.50;;;4.34;100.00
19510;BME280;9896;42.486;26.506;2023-04-10T02:22:27;99884.50;;;4.45;100.00
19510;BME280;9896;42.486;26.506;2023-04-10T02:24:53;99884.84;;;4.42;100.00
19510;BME280;9896;42.486;26.506;2023-04-10T02:27:33;99890.16;;;4.50;100.00
19510;BME280;9896;42.486;26.506;2023-04-10T02:30:00;99891.00;;;4.43;100.00
19510;BME280;9896;42.486;26.506;2023-04-10T02:32:27;99886.69;;;4.17;100.00
19510;BME280;9896;42.486;26.506;2023-04-10T02:34:53;99883.38;;;4.15;100.00
19510;BME280;9896;42.486;26.506;2023-04-10T02:37:19;99880.19;;;4.12;100.00
19510;BME280;9896;42.486;26.506;2023-04-10T02:39:44;99880.19;;;4.12;100.00
19510;BME280;9896;42.486;26.506;2023-04-10T02:42:10;99878.56;;;4.19;100.00
19510;BME280;9896;42.486;26.506;2023-04-10T02:44:36;99873.41;;;4.26;100.00
19510;BME280;9896;42.486;26.506;2023-04-10T02:47:01;99873.75;;;4.14;100.00
19510;BME280;9896;42.486;26.506;2023-04-10T02:49:26;99881.22;;;4.27;100.00
19510;BME280;9896;42.486;26.506;2023-04-10T02:51:52;99877.53;;;4.12;100.00
19510;BME280;9896;42.486;26.506;2023-04-10T02:54:17;99877.53;;;4.12;100.00
19510;BME280;9896;42.486;26.506;2023-04-10T02:56:43;99871.94;;;4.23;100.00
19510;BME280;9896;42.486;26.506;2023-04-10T02:59:08;99865.94;;;4.21;100.00
19510;BME280;9896;42.486;26.506;2023-04-10T03:01:34;99872.06;;;4.30;100.00
19510;BME280;9896;42.486;26.506;2023-04-10T03:04:00;99873.06;;;4.12;100.00
19510;BME280;9896;42.486;26.506;2023-04-10T03:06:27;99871.09;;;3.90;100.00
19510;BME280;9896;42.486;26.506;2023-04-10T03:08:53;99882.66;;;3.81;100.00
19510;BME280;9896;42.486;26.506;2023-04-10T03:11:18;99878.00;;;3.75;100.00
19510;BME280;9896;42.486;26.506;2023-04-10T03:13:44;99876.38;;;3.82;100.00
19510;BME280;9896;42.486;26.506;2023-04-10T03:16:09;99874.09;;;4.03;100.00
19510;BME280;9896;42.486;26.506;2023-04-10T03:18:35;99874.09;;;4.11;100.00
19510;BME280;9896;42.486;26.506;2023-04-10T03:21:00;99883.88;;;4.03;100.00
19510;BME280;9896;42.486;26.506;2023-04-10T03:23:29;99873.06;;;4.12;100.00
19510;BME280;9896;42.486;26.506;2023-04-10T03:25:55;99876.91;;;4.10;100.00
19510;BME280;9896;42.486;26.506;2023-04-10T03:28:21;99874.09;;;4.19;100.00
19510;BME280;9896;42.486;26.506;2023-04-10T03:30:47;99882.84;;;4.28;100.00
19510;BME280;9896;42.486;26.506;2023-04-10T03:33:12;99882.84;;;4.36;100.00
19510;BME280;9896;42.486;26.506;2023-04-10T03:35:38;99881.84;;;4.29;100.00
19510;BME280;9896;42.486;26.506;2023-04-10T03:38:03;99879.06;;;4.14;100.00
19510;BME280;9896;42.486;26.506;2023-04-10T03:40:29;99883.53;;;4.22;100.00
19510;BME280;9896;42.486;26.506;2023-04-10T03:42:54;99871.59;;;4.18;100.00
19510;BME280;9896;42.486;26.506;2023-04-10T03:45:20;99880.38;;;4.27;100.00
19510;BME280;9896;42.486;26.506;2023-04-10T03:47:45;99876.22;;;4.32;100.00
19510;BME280;9896;42.486;26.506;2023-04-10T03:50:11;99869.91;;;4.25;100.00
19510;BME280;9896;42.486;26.506;2023-04-10T03:52:37;99879.69;;;4.16;100.00
19510;BME280;9896;42.486;26.506;2023-04-10T03:55:02;99879.19;;;3.81;100.00
19510;BME280;9896;42.486;26.506;2023-04-10T03:57:28;99884.31;;;3.74;100.00
19510;BME280;9896;42.486;26.506;2023-04-10T03:59:53;99877.19;;;3.74;100.00
19510;BME280;9896;42.486;26.506;2023-04-10T04:02:19;99883.19;;;3.93;100.00
19510;BME280;9896;42.486;26.506;2023-04-10T04:04:45;99869.25;;;3.91;100.00
19510;BME280;9896;42.486;26.506;2023-04-10T04:07:10;99880.53;;;3.93;100.00
19510;BME280;9896;42.486;26.506;2023-04-10T04:09:37;99878.56;;;4.19;100.00
19510;BME280;9896;42.486;26.506;2023-04-10T04:12:03;99880.69;;;4.48;100.00
19510;BME280;9896;42.486;26.506;2023-04-10T04:14:28;99868.09;;;4.34;100.00
19510;BME280;9896;42.486;26.506;2023-04-10T04:16:54;99872.75;;;4.15;100.00
19510;BME280;9896;42.486;26.506;2023-04-10T04:19:19;99873.25;;;4.27;100.00
19510;BME280;9896;42.486;26.506;2023-04-10T04:21:45;99871.94;;;4.15;100.00
19510;BME280;9896;42.486;26.506;2023-04-10T04:24:10;99863.97;;;4.31;100.00
19510;BME280;9896;42.486;26.506;2023-04-10T04:26:36;99870.25;;;4.46;100.00
19510;BME280;9896;42.486;26.506;2023-04-10T04:29:01;99866.22;;;4.66;100.00
19510;BME280;9896;42.486;26.506;2023-04-10T04:31:27;99866.38;;;4.73;100.00
19510;BME280;9896;42.486;26.506;2023-04-10T04:33:57;99870.81;;;4.89;100.00
19510;BME280;9896;42.486;26.506;2023-04-10T04:36:22;99868.50;;;4.78;100.00
19510;BME280;9896;42.486;26.506;2023-04-10T04:38:48;99856.78;;;4.64;100.00
19510;BME280;9896;42.486;26.506;2023-04-10T04:41:13;99876.84;;;4.58;100.00
19510;BME280;9896;42.486;26.506;2023-04-10T04:43:40;99869.72;;;4.67;100.00
19510;BME280;9896;42.486;26.506;2023-04-10T04:46:05;99875.44;;;4.95;100.00
19510;BME280;9896;42.486;26.506;2023-04-10T04:48:31;99882.03;;;5.07;100.00
19510;BME280;9896;42.486;26.506;2023-04-10T04:50:56;99886.53;;;5.06;100.00
19510;BME280;9896;42.486;26.506;2023-04-10T04:53:22;99885.94;;;5.27;99.69
19510;BME280;9896;42.486;26.506;2023-04-10T04:55:47;99892.94;;;5.28;99.87
19510;BME280;9896;42.486;26.506;2023-04-10T04:58:12;99894.72;;;5.36;99.06
19510;BME280;9896;42.486;26.506;2023-04-10T05:00:38;99894.38;;;5.39;99.01
19510;BME280;9896;42.486;26.506;2023-04-10T05:03:03;99886.63;;;5.29;99.34
19510;BME280;9896;42.486;26.506;2023-04-10T05:05:30;99897.19;;;5.45;98.74
19510;BME280;9896;42.486;26.506;2023-04-10T05:07:56;99888.19;;;5.46;98.35
19510;BME280;9896;42.486;26.506;2023-04-10T05:10:21;99897.47;;;5.81;97.22
19510;BME280;9896;42.486;26.506;2023-04-10T05:12:47;99902.41;;;5.92;95.86
19510;BME280;9896;42.486;26.506;2023-04-10T05:15:12;99906.38;;;5.96;96.18
19510;BME280;9896;42.486;26.506;2023-04-10T05:17:38;99908.81;;;6.06;96.38
19510;BME280;9896;42.486;26.506;2023-04-10T05:20:03;99907.41;;;6.18;95.60
19510;BME280;9896;42.486;26.506;2023-04-10T05:22:29;99901.72;;;6.21;95.58
19510;BME280;9896;42.486;26.506;2023-04-10T05:24:55;99903.19;;;6.46;94.68
19510;BME280;9896;42.486;26.506;2023-04-10T05:27:20;99913.09;;;6.52;95.14
19510;BME280;9896;42.486;26.506;2023-04-10T05:29:46;99917.81;;;6.65;94.15
19510;BME280;9896;42.486;26.506;2023-04-10T05:32:12;99921.50;;;6.64;94.59
19510;BME280;9896;42.486;26.506;2023-04-10T05:34:38;99904.34;;;6.81;93.87
19510;BME280;9896;42.486;26.506;2023-04-10T05:37:03;99911.88;;;6.78;93.57
19510;BME280;9896;42.486;26.506;2023-04-10T05:39:29;99916.28;;;6.71;94.33
19510;BME280;9896;42.486;26.506;2023-04-10T05:41:54;99910.63;;;6.88;93.95
19510;BME280;9896;42.486;26.506;2023-04-10T05:44:20;99906.09;;;6.89;93.95
19510;BME280;9896;42.486;26.506;2023-04-10T05:46:46;99915.28;;;7.01;93.59
19510;BME280;9896;42.486;26.506;2023-04-10T05:49:11;99913.38;;;6.95;93.70
19510;BME280;9896;42.486;26.506;2023-04-10T05:51:37;99903.25;;;6.90;94.14
19510;BME280;9896;42.486;26.506;2023-04-10T05:54:02;99904.25;;;7.19;93.40
19510;BME280;9896;42.486;26.506;2023-04-10T05:56:28;99903.72;;;7.23;94.41
19510;BME280;9896;42.486;26.506;2023-04-10T05:58:53;99906.09;;;7.33;93.39
19510;BME280;9896;42.486;26.506;2023-04-10T06:01:19;99914.19;;;7.39;93.03
19510;BME280;9896;42.486;26.506;2023-04-10T06:03:44;99909.22;;;7.22;93.28
19510;BME280;9896;42.486;26.506;2023-04-10T06:06:10;99909.41;;;7.06;94.71
19510;BME280;9896;42.486;26.506;2023-04-10T06:08:36;99907.13;;;7.17;93.90
19510;BME280;9896;42.486;26.506;2023-04-10T06:11:01;99921.66;;;7.29;93.61
19510;BME280;9896;42.486;26.506;2023-04-10T06:13:27;99919.44;;;7.18;94.05
19510;BME280;9896;42.486;26.506;2023-04-10T06:15:52;99913.19;;;7.40;94.37
19510;BME280;9896;42.486;26.506;2023-04-10T06:18:18;99911.97;;;7.43;94.07
19510;BME280;9896;42.486;26.506;2023-04-10T06:20:43;99912.53;;;7.74;93.32
19510;BME280;9896;42.486;26.506;2023-04-10T06:23:08;99910.34;;;7.78;92.87
19510;BME280;9896;42.486;26.506;2023-04-10T06:25:34;99915.41;;;8.09;92.36
19510;BME280;9896;42.486;26.506;2023-04-10T06:27:59;99912.47;;;8.04;92.99
19510;BME280;9896;42.486;26.506;2023-04-10T06:30:25;99910.09;;;8.30;92.14
19510;BME280;9896;42.486;26.506;2023-04-10T07:26:40;99924.63;;;9.73;82.79
19510;BME280;9896;42.486;26.506;2023-04-10T07:29:06;99930.28;;;9.98;81.65
19510;BME280;9896;42.486;26.506;2023-04-10T07:31:31;99920.91;;;10.35;79.89
19510;BME280;9896;42.486;26.506;2023-04-10T07:33:57;99907.44;;;10.15;80.11
19510;BME280;9896;42.486;26.506;2023-04-10T07:36:22;99927.06;;;10.29;79.45
19510;BME280;9896;42.486;26.506;2023-04-10T07:42:10;99916.13;;;10.17;78.75
19510;BME280;9896;42.486;26.506;2023-04-10T07:44:36;99910.16;;;10.21;78.13
19510;BME280;9896;42.486;26.506;2023-04-10T07:47:02;99927.25;;;10.27;78.59
19510;BME280;9896;42.486;26.506;2023-04-10T07:49:27;99922.97;;;10.46;78.26
19510;BME280;9896;42.486;26.506;2023-04-10T07:51:53;99911.19;;;10.40;77.43
19510;BME280;9896;42.486;26.506;2023-04-10T07:54:18;99911.00;;;10.48;77.43
19510;BME280;9896;42.486;26.506;2023-04-10T07:56:43;99905.66;;;10.35;76.85
19510;BME280;9896;42.486;26.506;2023-04-10T07:59:10;99905.63;;;10.48;76.70
19510;BME280;9896;42.486;26.506;2023-04-10T08:01:36;99915.31;;;10.36;76.42
19510;BME280;9896;42.486;26.506;2023-04-10T08:04:01;99889.16;;;10.45;76.30
19510;BME280;9896;42.486;26.506;2023-04-10T08:06:27;99910.16;;;10.48;76.26
19510;BME280;9896;42.486;26.506;2023-04-10T08:08:52;99914.91;;;10.72;75.19
19510;BME280;9896;42.486;26.506;2023-04-10T08:13:47;99920.47;;;11.03;74.30
19510;BME280;9896;42.486;26.506;2023-04-10T08:16:13;99920.31;;;10.59;75.77
19510;BME280;9896;42.486;26.506;2023-04-10T08:18:38;99914.72;;;10.67;75.79
19510;BME280;9896;42.486;26.506;2023-04-10T08:21:04;99908.94;;;10.57;76.38
19510;BME280;9896;42.486;26.506;2023-04-10T08:23:30;99918.84;;;10.56;75.99
19510;BME280;9896;42.486;26.506;2023-04-10T08:25:55;99920.91;;;10.74;75.36
19510;BME280;9896;42.486;26.506;2023-04-10T08:28:21;99922.34;;;10.83;75.03
19510;BME280;9896;42.486;26.506;2023-04-10T08:30:46;99910.59;;;10.64;74.97
19510;BME280;9896;42.486;26.506;2023-04-10T08:33:12;99918.44;;;10.59;75.01
19510;BME280;9896;42.486;26.506;2023-04-10T08:35:37;99911.44;;;10.58;75.24
19510;BME280;9896;42.486;26.506;2023-04-10T08:38:03;99908.31;;;10.68;74.41
19510;BME280;9896;42.486;26.506;2023-04-10T08:40:28;99915.75;;;10.86;73.87
19510;BME280;9896;42.486;26.506;2023-04-10T08:42:53;99904.81;;;10.81;75.28
19510;BME280;9896;42.486;26.506;2023-04-10T08:45:20;99896.16;;;10.92;75.25
19510;BME280;9896;42.486;26.506;2023-04-10T08:47:47;99901.31;;;10.67;75.86
19510;BME280;9896;42.486;26.506;2023-04-10T08:50:16;99893.69;;;10.84;74.94
19510;BME280;9896;42.486;26.506;2023-04-10T08:52:43;99888.13;;;10.79;75.02
19510;BME280;9896;42.486;26.506;2023-04-10T08:55:11;99877.38;;;10.79;75.80
19510;BME280;9896;42.486;26.506;2023-04-10T08:57:39;99876.34;;;10.86;75.41
19510;BME280;9896;42.486;26.506;2023-04-10T09:00:05;99886.47;;;10.71;75.34
19510;BME280;9896;42.486;26.506;2023-04-10T09:02:30;99886.63;;;10.89;75.32
19510;BME280;9896;42.486;26.506;2023-04-10T09:04:56;99885.84;;;10.82;75.75
19510;BME280;9896;42.486;26.506;2023-04-10T09:07:25;99880.84;;;11.12;74.99
19510;BME280;9896;42.486;26.506;2023-04-10T09:09:51;99880.25;;;10.77;75.79
19510;BME280;9896;42.486;26.506;2023-04-10T09:12:17;99868.03;;;11.01;75.61
19510;BME280;9896;42.486;26.506;2023-04-10T09:14:42;99867.88;;;10.96;74.88
19510;BME280;9896;42.486;26.506;2023-04-10T09:19:36;99862.69;;;11.07;74.53
19510;BME280;9896;42.486;26.506;2023-04-10T09:22:01;99859.75;;;11.15;75.19
19510;BME280;9896;42.486;26.506;2023-04-10T09:24:27;99859.31;;;11.25;74.81
19510;BME280;9896;42.486;26.506;2023-04-10T09:26:53;99849.38;;;11.32;74.73
19510;BME280;9896;42.486;26.506;2023-04-10T09:29:19;99847.09;;;11.36;75.02
19510;BME280;9896;42.486;26.506;2023-04-10T09:31:44;99841.50;;;11.37;74.55
19510;BME280;9896;42.486;26.506;2023-04-10T09:34:21;99837.34;;;11.48;74.80
19510;BME280;9896;42.486;26.506;2023-04-10T09:36:54;99837.81;;;11.32;74.69
19510;BME280;9896;42.486;26.506;2023-04-10T09:39:21;99829.78;;;11.76;73.62
19510;BME280;9896;42.486;26.506;2023-04-10T09:41:51;99831.97;;;11.92;72.62
19510;BME280;9896;42.486;26.506;2023-04-10T09:44:38;99834.91;;;11.84;71.10
19510;BME280;9896;42.486;26.506;2023-04-10T09:49:48;99835.16;;;11.76;71.46
19510;BME280;9896;42.486;26.506;2023-04-10T09:54:47;99820.03;;;12.13;69.58
19510;BME280;9896;42.486;26.506;2023-04-10T09:57:16;99829.53;;;11.84;70.75
19510;BME280;9896;42.486;26.506;2023-04-10T09:59:47;99808.59;;;11.93;70.56
19510;BME280;9896;42.486;26.506;2023-04-10T10:02:20;99827.78;;;11.96;70.86
19510;BME280;9896;42.486;26.506;2023-04-10T10:04:47;99819.75;;;12.21;69.70
19510;BME280;9896;42.486;26.506;2023-04-10T10:07:21;99827.19;;;11.94;70.61
19510;BME280;9896;42.486;26.506;2023-04-10T10:09:49;99829.59;;;12.02;70.22
19510;BME280;9896;42.486;26.506;2023-04-10T10:12:16;99806.47;;;12.01;69.70
19510;BME280;9896;42.486;26.506;2023-04-10T10:15:03;99815.56;;;12.00;69.69
19510;BME280;9896;42.486;26.506;2023-04-10T10:17:49;99812.19;;;11.80;71.30
19510;BME280;9896;42.486;26.506;2023-04-10T10:20:19;99804.47;;;11.90;70.67
19510;BME280;9896;42.486;26.506;2023-04-10T10:22:47;99808.94;;;11.72;71.52
19510;BME280;9896;42.486;26.506;2023-04-10T10:25:15;99802.09;;;11.76;72.01
19510;BME280;9896;42.486;26.506;2023-04-10T10:27:40;99796.06;;;11.80;72.01
19510;BME280;9896;42.486;26.506;2023-04-10T10:30:08;99791.84;;;11.91;71.29
19510;BME280;9896;42.486;26.506;2023-04-10T10:32:34;99790.06;;;11.85;71.87
19510;BME280;9896;42.486;26.506;2023-04-10T10:35:03;99784.06;;;11.83;72.80
19510;BME280;9896;42.486;26.506;2023-04-10T10:37:29;99780.91;;;11.92;72.50
19510;BME280;9896;42.486;26.506;2023-04-10T10:43:15;99786.94;;;12.13;72.67
19510;BME280;9896;42.486;26.506;2023-04-10T10:45:57;99782.13;;;11.96;72.62
19510;BME280;9896;42.486;26.506;2023-04-10T10:48:25;99761.06;;;11.93;72.86
19510;BME280;9896;42.486;26.506;2023-04-10T10:53:37;99768.06;;;11.94;73.66
19510;BME280;9896;42.486;26.506;2023-04-10T11:01:11;99763.53;;;12.20;72.73
19510;BME280;9896;42.486;26.506;2023-04-10T11:03:37;99770.16;;;12.42;71.94
19510;BME280;9896;42.486;26.506;2023-04-10T11:06:06;99763.56;;;12.38;70.98
19510;BME280;9896;42.486;26.506;2023-04-10T11:11:02;99763.69;;;12.25;70.94
19510;BME280;9896;42.486;26.506;2023-04-10T11:13:35;99749.03;;;12.21;71.47
19510;BME280;9896;42.486;26.506;2023-04-10T11:16:02;99761.59;;;12.27;71.57
19510;BME280;9896;42.486;26.506;2023-04-10T11:21:19;99749.22;;;12.26;72.00
19510;BME280;9896;42.486;26.506;2023-04-10T11:28:59;99757.53;;;12.42;71.26
19510;BME280;9896;42.486;26.506;2023-04-10T11:31:25;99741.84;;;12.15;72.49
19510;BME280;9896;42.486;26.506;2023-04-10T11:34:05;99747.16;;;12.64;71.48
19510;BME280;9896;42.486;26.506;2023-04-10T11:36:32;99749.88;;;12.39;71.96
19510;BME280;9896;42.486;26.506;2023-04-10T11:39:03;99747.06;;;12.34;71.11
19510;BME280;9896;42.486;26.506;2023-04-10T11:41:41;99746.28;;;12.27;72.22
19510;BME280;9896;42.486;26.506;2023-04-10T11:44:09;99745.88;;;12.30;72.42
19510;BME280;9896;42.486;26.506;2023-04-10T11:46:37;99743.34;;;12.10;73.49
19510;BME280;9896;42.486;26.506;2023-04-10T11:49:05;99749.59;;;12.29;73.86
19510;BME280;9896;42.486;26.506;2023-04-10T11:51:32;99742.91;;;12.14;76.33
19510;BME280;9896;42.486;26.506;2023-04-10T11:56:29;99728.97;;;11.98;79.74
19510;BME280;9896;42.486;26.506;2023-04-10T11:58:54;99742.16;;;11.82;82.31
19510;BME280;9896;42.486;26.506;2023-04-10T12:01:20;99737.28;;;11.65;83.77
19510;BME280;9896;42.486;26.506;2023-04-10T12:03:46;99728.31;;;11.78;86.41
19510;BME280;9896;42.486;26.506;2023-04-10T12:06:13;99729.59;;;12.19;83.99
19510;BME280;9896;42.486;26.506;2023-04-10T12:08:43;99727.00;;;12.12;79.50
19510;BME280;9896;42.486;26.506;2023-04-10T12:11:12;99731.88;;;12.22;77.18
19510;BME280;9896;42.486;26.506;2023-04-10T12:13:38;99725.59;;;12.28;75.91
19510;BME280;9896;42.486;26.506;2023-04-10T12:16:06;99727.00;;;12.55;75.38
19510;BME280;9896;42.486;26.506;2023-04-10T12:18:32;99721.69;;;12.67;74.87
19510;BME280;9896;42.486;26.506;2023-04-10T12:20:59;99715.25;;;12.49;75.69
19510;BME280;9896;42.486;26.506;2023-04-10T12:23:26;99718.69;;;12.38;77.95
19510;BME280;9896;42.486;26.506;2023-04-10T12:25:53;99716.78;;;12.21;79.31
19510;BME280;9896;42.486;26.506;2023-04-10T12:28:30;99717.81;;;12.20;79.75
19510;BME280;9896;42.486;26.506;2023-04-10T12:30:56;99708.34;;;12.35;79.86
19510;BME280;9896;42.486;26.506;2023-04-10T12:33:22;99709.25;;;12.47;80.90
19510;BME280;9896;42.486;26.506;2023-04-10T12:35:48;99703.94;;;12.23;80.45
19510;BME280;9896;42.486;26.506;2023-04-10T12:38:14;99710.50;;;12.08;81.53
19510;BME280;9896;42.486;26.506;2023-04-10T12:41:07;99714.66;;;12.04;82.86
19510;BME280;9896;42.486;26.506;2023-04-10T12:43:40;99714.59;;;11.86;82.37
19510;BME280;9896;42.486;26.506;2023-04-10T12:46:07;99710.66;;;11.89;83.00
19510;BME280;9896;42.486;26.506;2023-04-10T12:48:33;99707.88;;;11.71;83.23
19510;BME280;9896;42.486;26.506;2023-04-10T12:50:59;99705.50;;;11.56;84.81
19510;BME280;9896;42.486;26.506;2023-04-10T12:53:25;99700.88;;;11.70;86.02
19510;BME280;9896;42.486;26.506;2023-04-10T12:55:56;99710.94;;;11.81;84.25
19510;BME280;9896;42.486;26.506;2023-04-10T12:58:23;99702.50;;;12.02;83.53
19510;BME280;9896;42.486;26.506;2023-04-10T13:00:53;99705.56;;;12.05;82.74
19510;BME280;9896;42.486;26.506;2023-04-10T13:03:20;99707.16;;;11.88;82.90
19510;BME280;9896;42.486;26.506;2023-04-10T13:05:46;99711.69;;;11.88;82.81
19510;BME280;9896;42.486;26.506;2023-04-10T13:08:12;99712.88;;;11.67;84.77
19510;BME280;9896;42.486;26.506;2023-04-10T13:10:38;99701.66;;;11.45;88.01
19510;BME280;9896;42.486;26.506;2023-04-10T13:13:04;99694.22;;;11.16;88.79
19510;BME280;9896;42.486;26.506;2023-04-10T13:15:31;99697.16;;;11.08;89.09
19510;BME280;9896;42.486;26.506;2023-04-10T13:17:59;99699.66;;;10.96;91.52
19510;BME280;9896;42.486;26.506;2023-04-10T13:20:25;99697.22;;;10.95;92.82
19510;BME280;9896;42.486;26.506;2023-04-10T13:22:50;99704.84;;;11.29;95.62
19510;BME280;9896;42.486;26.506;2023-04-10T13:25:15;99703.34;;;11.40;95.11
19510;BME280;9896;42.486;26.506;2023-04-10T13:27:41;99704.38;;;11.07;98.75
19510;BME280;9896;42.486;26.506;2023-04-10T13:30:07;99700.91;;;11.00;100.00
19510;BME280;9896;42.486;26.506;2023-04-10T13:32:32;99699.25;;;10.99;100.00
19510;BME280;9896;42.486;26.506;2023-04-10T13:34:58;99699.75;;;10.83;100.00
19510;BME280;9896;42.486;26.506;2023-04-10T13:37:23;99696.19;;;10.89;100.00
19510;BME280;9896;42.486;26.506;2023-04-10T13:39:50;99690.03;;;10.82;100.00
19510;BME280;9896;42.486;26.506;2023-04-10T13:42:16;99690.38;;;10.99;100.00
19510;BME280;9896;42.486;26.506;2023-04-10T13:44:42;99698.94;;;10.69;100.00
19510;BME280;9896;42.486;26.506;2023-04-10T13:47:07;99685.31;;;10.78;100.00
19510;BME280;9896;42.486;26.506;2023-04-10T13:49:33;99696.72;;;10.60;100.00
19510;BME280;9896;42.486;26.506;2023-04-10T13:51:58;99690.13;;;10.62;100.00
19510;BME280;9896;42.486;26.506;2023-04-10T13:54:24;99688.22;;;10.69;100.00
19510;BME280;9896;42.486;26.506;2023-04-10T13:56:50;99691.78;;;10.57;100.00
19510;BME280;9896;42.486;26.506;2023-04-10T13:59:16;99689.13;;;10.50;100.00
19510;BME280;9896;42.486;26.506;2023-04-10T14:01:41;99682.28;;;10.67;100.00
19510;BME280;9896;42.486;26.506;2023-04-10T14:04:07;99681.06;;;10.63;100.00
19510;BME280;9896;42.486;26.506;2023-04-10T14:06:33;99680.63;;;10.66;100.00
19510;BME280;9896;42.486;26.506;2023-04-10T14:08:58;99676.38;;;10.33;100.00
19510;BME280;9896;42.486;26.506;2023-04-10T14:11:24;99684.66;;;10.24;100.00
19510;BME280;9896;42.486;26.506;2023-04-10T14:13:50;99674.53;;;10.33;100.00
19510;BME280;9896;42.486;26.506;2023-04-10T14:16:15;99681.78;;;10.26;100.00
19510;BME280;9896;42.486;26.506;2023-04-10T14:18:41;99684.44;;;10.19;100.00
19510;BME280;9896;42.486;26.506;2023-04-10T14:21:06;99674.16;;;10.16;100.00
19510;BME280;9896;42.486;26.506;2023-04-10T14:23:32;99684.03;;;10.03;100.00
19510;BME280;9896;42.486;26.506;2023-04-10T14:25:57;99678.47;;;9.91;100.00
19510;BME280;9896;42.486;26.506;2023-04-10T14:28:23;99693.13;;;9.89;100.00
19510;BME280;9896;42.486;26.506;2023-04-10T14:30:50;99698.28;;;9.90;100.00
19510;BME280;9896;42.486;26.506;2023-04-10T14:33:17;99693.31;;;9.87;100.00
19510;BME280;9896;42.486;26.506;2023-04-10T14:35:43;99696.81;;;9.88;100.00
19510;BME280;9896;42.486;26.506;2023-04-10T14:38:09;99705.28;;;9.98;100.00
19510;BME280;9896;42.486;26.506;2023-04-10T14:40:35;99701.56;;;9.79;100.00
19510;BME280;9896;42.486;26.506;2023-04-10T14:43:00;99706.50;;;9.56;100.00
19510;BME280;9896;42.486;26.506;2023-04-10T14:45:27;99705.28;;;9.65;100.00
19510;BME280;9896;42.486;26.506;2023-04-10T14:47:55;99705.84;;;9.27;100.00